sensor_id;sensor_type;location;lat;lon;timestamp;pressure;altitude;pressure_sealevel;temperature;humidity
80149;BME280;69473;42.426;26.644;2024-03-07T00:01:42;99152.41;;;6.21;71.56
80149;BME280;69473;42.426;26.644;2024-03-07T00:04:08;99146.41;;;6.22;71.63
80149;BME280;69473;42.426;26.644;2024-03-07T00:06:34;99141.19;;;6.19;71.71
80149;BME280;69473;42.426;26.644;2024-03-07T00:09:00;99148.16;;;6.23;71.95
80149;BME280;69473;42.426;26.644;2024-03-07T00:11:25;99143.00;;;6.23;71.45
80149;BME280;69473;42.426;26.644;2024-03-07T00:13:51;99141.31;;;6.25;72.14
80149;BME280;69473;42.426;26.644;2024-03-07T00:16:16;99130.91;;;6.19;71.77
80149;BME280;69473;42.426;26.644;2024-03-07T00:18:42;99139.53;;;6.21;72.01
80149;BME280;69473;42.426;26.644;2024-03-07T00:21:08;99132.72;;;6.23;71.77
80149;BME280;69473;42.426;26.644;2024-03-07T00:23:33;99127.47;;;6.17;72.17
80149;BME280;69473;42.426;26.644;2024-03-07T00:25:59;99129.13;;;6.15;72.02
80149;BME280;69473;42.426;26.644;2024-03-07T00:28:25;99130.91;;;6.19;72.23
80149;BME280;69473;42.426;26.644;2024-03-07T00:30:54;99134.38;;;6.21;72.16
80149;BME280;69473;42.426;26.644;2024-03-07T00:33:20;99127.56;;;6.23;71.88
80149;BME280;69473;42.426;26.644;2024-03-07T00:35:47;99126.59;;;6.17;72.37
80149;BME280;69473;42.426;26.644;2024-03-07T00:38:12;99126.66;;;6.20;72.22
80149;BME280;69473;42.426;26.644;2024-03-07T00:40:38;99131.81;;;6.21;71.93
80149;BME280;69473;42.426;26.644;2024-03-07T00:43:03;99123.94;;;6.12;71.88
80149;BME280;69473;42.426;26.644;2024-03-07T00:45:31;99123.81;;;6.05;71.93
80149;BME280;69473;42.426;26.644;2024-03-07T00:47:58;99125.59;;;6.10;72.32
80149;BME280;69473;42.426;26.644;2024-03-07T00:50:24;99120.47;;;6.10;71.79
80149;BME280;69473;42.426;26.644;2024-03-07T00:52:50;99115.31;;;6.10;72.07
80149;BME280;69473;42.426;26.644;2024-03-07T00:55:16;99123.13;;;6.15;71.53
80149;BME280;69473;42.426;26.644;2024-03-07T00:57:41;99117.16;;;6.17;71.20
80149;BME280;69473;42.426;26.644;2024-03-07T01:00:07;99112.03;;;6.19;71.72
80149;BME280;69473;42.426;26.644;2024-03-07T01:02:42;99105.13;;;6.15;71.14
80149;BME280;69473;42.426;26.644;2024-03-07T01:05:11;99101.53;;;6.05;71.28
80149;BME280;69473;42.426;26.644;2024-03-07T01:07:39;99103.31;;;6.09;71.72
80149;BME280;69473;42.426;26.644;2024-03-07T01:10:06;99106.72;;;6.08;71.49
80149;BME280;69473;42.426;26.644;2024-03-07T01:12:32;99103.31;;;6.09;71.29
80149;BME280;69473;42.426;26.644;2024-03-07T01:15:00;99098.00;;;6.00;71.33
80149;BME280;69473;42.426;26.644;2024-03-07T01:17:26;99101.31;;;5.94;72.35
80149;BME280;69473;42.426;26.644;2024-03-07T01:19:52;99103.81;;;5.90;72.37
80149;BME280;69473;42.426;26.644;2024-03-07T01:22:17;99108.09;;;5.91;71.65
80149;BME280;69473;42.426;26.644;2024-03-07T01:24:43;99103.81;;;5.90;71.92
80149;BME280;69473;42.426;26.644;2024-03-07T01:27:09;99103.00;;;5.92;72.15
80149;BME280;69473;42.426;26.644;2024-03-07T01:29:34;99098.56;;;5.84;72.09
80149;BME280;69473;42.426;26.644;2024-03-07T01:32:00;99105.31;;;5.78;72.04
80149;BME280;69473;42.426;26.644;2024-03-07T01:34:26;99102.63;;;5.72;72.40
80149;BME280;69473;42.426;26.644;2024-03-07T01:36:52;99102.63;;;5.72;71.91
80149;BME280;69473;42.426;26.644;2024-03-07T01:39:17;99099.00;;;5.61;72.21
80149;BME280;69473;42.426;26.644;2024-03-07T01:41:43;99098.09;;;5.59;72.22
80149;BME280;69473;42.426;26.644;2024-03-07T01:44:09;99100.66;;;5.59;73.13
80149;BME280;69473;42.426;26.644;2024-03-07T01:46:35;99095.59;;;5.62;72.16
80149;BME280;69473;42.426;26.644;2024-03-07T01:49:01;99090.38;;;5.59;73.19
80149;BME280;69473;42.426;26.644;2024-03-07T01:51:27;99097.38;;;5.66;72.74
80149;BME280;69473;42.426;26.644;2024-03-07T01:53:53;99101.69;;;5.69;72.41
80149;BME280;69473;42.426;26.644;2024-03-07T01:56:19;99102.69;;;5.75;71.78
80149;BME280;69473;42.426;26.644;2024-03-07T01:58:49;99099.34;;;5.79;72.07
80149;BME280;69473;42.426;26.644;2024-03-07T02:01:17;99107.88;;;5.78;72.38
80149;BME280;69473;42.426;26.644;2024-03-07T02:03:43;99106.91;;;5.72;71.62
80149;BME280;69473;42.426;26.644;2024-03-07T02:06:08;99109.41;;;5.67;72.44
80149;BME280;69473;42.426;26.644;2024-03-07T02:08:34;99107.75;;;5.72;72.75
80149;BME280;69473;42.426;26.644;2024-03-07T02:11:00;99101.69;;;5.69;72.88
80149;BME280;69473;42.426;26.644;2024-03-07T02:13:26;99111.06;;;5.65;72.71
80149;BME280;69473;42.426;26.644;2024-03-07T02:15:52;99101.81;;;5.75;72.66
80149;BME280;69473;42.426;26.644;2024-03-07T02:18:19;99101.81;;;5.73;73.25
80149;BME280;69473;42.426;26.644;2024-03-07T02:20:46;99100.84;;;5.68;73.03
80149;BME280;69473;42.426;26.644;2024-03-07T02:23:12;99100.91;;;5.71;73.57
80149;BME280;69473;42.426;26.644;2024-03-07T02:25:38;99093.75;;;5.55;73.63
80149;BME280;69473;42.426;26.644;2024-03-07T02:28:04;99092.84;;;5.53;73.40
80149;BME280;69473;42.426;26.644;2024-03-07T02:30:30;99095.41;;;5.51;73.37
80149;BME280;69473;42.426;26.644;2024-03-07T02:33:00;99090.09;;;5.44;73.77
80149;BME280;69473;42.426;26.644;2024-03-07T02:35:35;99100.44;;;5.47;73.21
80149;BME280;69473;42.426;26.644;2024-03-07T02:38:02;99099.38;;;5.37;73.34
80149;BME280;69473;42.426;26.644;2024-03-07T02:40:28;99095.78;;;5.27;73.78
80149;BME280;69473;42.426;26.644;2024-03-07T02:43:16;99094.63;;;5.13;74.50
80149;BME280;69473;42.426;26.644;2024-03-07T02:45:43;99104.97;;;5.16;74.53
80149;BME280;69473;42.426;26.644;2024-03-07T02:48:08;99105.03;;;5.19;75.13
80149;BME280;69473;42.426;26.644;2024-03-07T02:50:35;99116.72;;;5.05;75.75
80149;BME280;69473;42.426;26.644;2024-03-07T02:53:04;99107.28;;;5.04;75.92
80149;BME280;69473;42.426;26.644;2024-03-07T02:55:33;99103.84;;;5.03;75.27
80149;BME280;69473;42.426;26.644;2024-03-07T02:57:59;99104.56;;;4.98;76.12
80149;BME280;69473;42.426;26.644;2024-03-07T03:00:25;99114.50;;;4.82;76.22
80149;BME280;69473;42.426;26.644;2024-03-07T03:02:57;99112.56;;;4.72;76.77
80149;BME280;69473;42.426;26.644;2024-03-07T03:05:23;99103.25;;;4.76;76.26
80149;BME280;69473;42.426;26.644;2024-03-07T03:07:50;99102.44;;;4.78;76.88
80149;BME280;69473;42.426;26.644;2024-03-07T03:10:23;99102.44;;;4.78;76.67
80149;BME280;69473;42.426;26.644;2024-03-07T03:12:57;99103.28;;;4.77;77.19
80149;BME280;69473;42.426;26.644;2024-03-07T03:15:24;99107.44;;;4.72;77.40
80149;BME280;69473;42.426;26.644;2024-03-07T03:17:50;99114.94;;;4.63;76.93
80149;BME280;69473;42.426;26.644;2024-03-07T03:20:17;99114.03;;;4.61;77.34
80149;BME280;69473;42.426;26.644;2024-03-07T03:22:59;99103.97;;;4.70;77.55
80149;BME280;69473;42.426;26.644;2024-03-07T03:25:25;99108.22;;;4.68;77.33
80149;BME280;69473;42.426;26.644;2024-03-07T03:27:51;99119.16;;;4.61;77.63
80149;BME280;69473;42.426;26.644;2024-03-07T03:30:18;99119.13;;;4.58;77.16
80149;BME280;69473;42.426;26.644;2024-03-07T03:32:47;99115.72;;;4.59;77.48
80149;BME280;69473;42.426;26.644;2024-03-07T03:35:15;99113.97;;;4.58;77.54
80149;BME280;69473;42.426;26.644;2024-03-07T03:37:42;99118.22;;;4.57;78.18
80149;BME280;69473;42.426;26.644;2024-03-07T03:40:09;99112.09;;;4.51;78.62
80149;BME280;69473;42.426;26.644;2024-03-07T03:42:38;99112.00;;;4.48;79.16
80149;BME280;69473;42.426;26.644;2024-03-07T03:45:05;99115.44;;;4.47;78.90
80149;BME280;69473;42.426;26.644;2024-03-07T03:47:38;99117.78;;;4.39;78.58
80149;BME280;69473;42.426;26.644;2024-03-07T03:50:04;99115.13;;;4.34;78.79
80149;BME280;69473;42.426;26.644;2024-03-07T03:52:31;99109.84;;;4.28;78.98
80149;BME280;69473;42.426;26.644;2024-03-07T03:54:58;99113.97;;;4.22;79.12
80149;BME280;69473;42.426;26.644;2024-03-07T03:57:25;99120.03;;;4.25;78.56
80149;BME280;69473;42.426;26.644;2024-03-07T03:59:51;99123.28;;;4.18;79.74
80149;BME280;69473;42.426;26.644;2024-03-07T04:04:52;99115.47;;;4.13;79.68
80149;BME280;69473;42.426;26.644;2024-03-07T04:07:19;99119.50;;;4.04;79.84
80149;BME280;69473;42.426;26.644;2024-03-07T04:09:45;99124.56;;;4.01;80.08
80149;BME280;69473;42.426;26.644;2024-03-07T04:12:12;99129.75;;;4.04;80.06
80149;BME280;69473;42.426;26.644;2024-03-07T04:14:41;99125.66;;;4.10;80.11
80149;BME280;69473;42.426;26.644;2024-03-07T04:17:11;99123.22;;;4.15;80.87
80149;BME280;69473;42.426;26.644;2024-03-07T04:19:41;99128.50;;;4.21;79.97
80149;BME280;69473;42.426;26.644;2024-03-07T04:22:08;99122.44;;;4.18;80.03
80149;BME280;69473;42.426;26.644;2024-03-07T04:24:36;99136.13;;;4.20;81.10
80149;BME280;69473;42.426;26.644;2024-03-07T04:27:04;99129.31;;;4.20;80.95
80149;BME280;69473;42.426;26.644;2024-03-07T04:29:34;99138.00;;;4.27;80.47
80149;BME280;69473;42.426;26.644;2024-03-07T04:32:01;99133.84;;;4.30;79.93
80149;BME280;69473;42.426;26.644;2024-03-07T04:34:30;99137.38;;;4.35;80.00
80149;BME280;69473;42.426;26.644;2024-03-07T04:36:57;99140.00;;;4.37;80.09
80149;BME280;69473;42.426;26.644;2024-03-07T04:39:24;99132.41;;;4.42;79.66
80149;BME280;69473;42.426;26.644;2024-03-07T04:42:00;99133.09;;;4.34;79.52
80149;BME280;69473;42.426;26.644;2024-03-07T04:44:30;99134.88;;;4.37;79.45
80149;BME280;69473;42.426;26.644;2024-03-07T04:46:57;99143.50;;;4.40;79.49
80149;BME280;69473;42.426;26.644;2024-03-07T04:49:24;99137.59;;;4.45;78.95
80149;BME280;69473;42.426;26.644;2024-03-07T04:51:59;99146.28;;;4.50;79.38
80149;BME280;69473;42.426;26.644;2024-03-07T04:54:26;99146.38;;;4.53;79.29
80149;BME280;69473;42.426;26.644;2024-03-07T04:56:53;99151.72;;;4.62;79.04
80149;BME280;69473;42.426;26.644;2024-03-07T04:59:20;99150.16;;;4.70;78.04
80149;BME280;69473;42.426;26.644;2024-03-07T05:01:47;99156.28;;;4.75;77.78
80149;BME280;69473;42.426;26.644;2024-03-07T05:04:14;99152.13;;;4.80;77.47
80149;BME280;69473;42.426;26.644;2024-03-07T05:06:40;99157.28;;;4.80;77.01
80149;BME280;69473;42.426;26.644;2024-03-07T05:09:08;99156.28;;;4.75;77.02
80149;BME280;69473;42.426;26.644;2024-03-07T05:11:51;99160.72;;;4.82;76.60
80149;BME280;69473;42.426;26.644;2024-03-07T05:14:20;99158.22;;;4.85;76.78
80149;BME280;69473;42.426;26.644;2024-03-07T05:16:51;99166.00;;;4.89;76.86
80149;BME280;69473;42.426;26.644;2024-03-07T05:19:33;99161.28;;;5.07;76.89
80149;BME280;69473;42.426;26.644;2024-03-07T05:21:59;99164.88;;;5.15;76.40
80149;BME280;69473;42.426;26.644;2024-03-07T05:24:25;99167.00;;;5.35;75.66
80149;BME280;69473;42.426;26.644;2024-03-07T05:26:50;99158.56;;;5.42;74.47
80149;BME280;69473;42.426;26.644;2024-03-07T05:29:19;99154.44;;;5.48;74.53
80149;BME280;69473;42.426;26.644;2024-03-07T05:31:45;99160.50;;;5.52;74.13
80149;BME280;69473;42.426;26.644;2024-03-07T05:34:17;99160.63;;;5.58;74.17
80149;BME280;69473;42.426;26.644;2024-03-07T05:36:48;99157.41;;;5.68;74.30
80149;BME280;69473;42.426;26.644;2024-03-07T05:39:16;99160.38;;;5.91;73.61
80149;BME280;69473;42.426;26.644;2024-03-07T05:41:43;99153.28;;;6.23;72.21
80149;BME280;69473;42.426;26.644;2024-03-07T05:44:10;99151.25;;;6.56;71.47
80149;BME280;69473;42.426;26.644;2024-03-07T05:46:39;99150.84;;;6.86;70.22
80149;BME280;69473;42.426;26.644;2024-03-07T05:49:15;99157.41;;;7.26;68.88
80149;BME280;69473;42.426;26.644;2024-03-07T05:51:42;99150.25;;;7.74;67.59
80149;BME280;69473;42.426;26.644;2024-03-07T05:54:13;99148.03;;;8.07;65.39
80149;BME280;69473;42.426;26.644;2024-03-07T05:56:39;99151.03;;;7.68;66.26
80149;BME280;69473;42.426;26.644;2024-03-07T05:59:06;99153.47;;;7.54;67.34
80149;BME280;69473;42.426;26.644;2024-03-07T06:01:38;99154.25;;;7.49;68.06
80149;BME280;69473;42.426;26.644;2024-03-07T06:04:06;99158.09;;;7.83;65.58
80149;BME280;69473;42.426;26.644;2024-03-07T06:06:35;99166.06;;;8.04;64.83
80149;BME280;69473;42.426;26.644;2024-03-07T06:09:05;99159.22;;;8.13;63.36
80149;BME280;69473;42.426;26.644;2024-03-07T06:11:38;99158.47;;;8.21;64.21
80149;BME280;69473;42.426;26.644;2024-03-07T06:14:08;99164.63;;;8.37;64.05
80149;BME280;69473;42.426;26.644;2024-03-07T06:16:37;99160.81;;;7.98;63.94
80149;BME280;69473;42.426;26.644;2024-03-07T06:19:04;99163.97;;;7.70;65.84
80149;BME280;69473;42.426;26.644;2024-03-07T06:21:33;99160.50;;;7.68;64.18
80149;BME280;69473;42.426;26.644;2024-03-07T06:24:00;99167.34;;;7.66;63.89
80149;BME280;69473;42.426;26.644;2024-03-07T06:26:27;99158.78;;;7.67;65.78
80149;BME280;69473;42.426;26.644;2024-03-07T06:29:15;99159.25;;;8.16;63.04
80149;BME280;69473;42.426;26.644;2024-03-07T06:31:42;99166.06;;;8.04;62.64
80149;BME280;69473;42.426;26.644;2024-03-07T06:34:07;99163.56;;;8.14;63.03
80149;BME280;69473;42.426;26.644;2024-03-07T06:36:36;99159.41;;;8.31;62.87
80149;BME280;69473;42.426;26.644;2024-03-07T06:39:02;99164.81;;;8.55;62.84
80149;BME280;69473;42.426;26.644;2024-03-07T06:41:34;99164.06;;;8.67;60.01
80149;BME280;69473;42.426;26.644;2024-03-07T06:44:01;99164.13;;;8.79;59.97
80149;BME280;69473;42.426;26.644;2024-03-07T06:46:27;99156.59;;;9.15;58.73
80149;BME280;69473;42.426;26.644;2024-03-07T06:48:52;99158.44;;;9.43;57.16
80149;BME280;69473;42.426;26.644;2024-03-07T06:51:19;99158.66;;;9.97;56.04
80149;BME280;69473;42.426;26.644;2024-03-07T06:53:45;99150.97;;;10.72;53.72
80149;BME280;69473;42.426;26.644;2024-03-07T06:56:12;99156.09;;;11.01;51.92
80149;BME280;69473;42.426;26.644;2024-03-07T06:58:38;99165.47;;;11.50;49.94
80149;BME280;69473;42.426;26.644;2024-03-07T07:01:04;99156.84;;;11.42;50.52
80149;BME280;69473;42.426;26.644;2024-03-07T07:03:36;99161.72;;;12.12;48.39
80149;BME280;69473;42.426;26.644;2024-03-07T07:06:02;99172.72;;;12.48;48.02
80149;BME280;69473;42.426;26.644;2024-03-07T07:08:27;99168.53;;;12.32;48.36
80149;BME280;69473;42.426;26.644;2024-03-07T07:10:56;99166.69;;;13.38;44.22
80149;BME280;69473;42.426;26.644;2024-03-07T07:13:23;99164.03;;;13.46;46.34
80149;BME280;69473;42.426;26.644;2024-03-07T07:15:49;99159.91;;;13.96;44.36
80149;BME280;69473;42.426;26.644;2024-03-07T07:18:15;99156.47;;;14.51;42.82
80149;BME280;69473;42.426;26.644;2024-03-07T07:20:40;99163.25;;;15.14;41.34
80149;BME280;69473;42.426;26.644;2024-03-07T07:23:06;99151.16;;;15.09;39.98
80149;BME280;69473;42.426;26.644;2024-03-07T07:25:32;99154.91;;;15.82;39.14
80149;BME280;69473;42.426;26.644;2024-03-07T07:27:58;99158.69;;;16.47;37.23
80149;BME280;69473;42.426;26.644;2024-03-07T07:30:25;99154.69;;;17.35;36.56
80149;BME280;69473;42.426;26.644;2024-03-07T07:32:53;99153.34;;;18.40;34.85
80149;BME280;69473;42.426;26.644;2024-03-07T07:35:22;99161.50;;;16.76;36.11
80149;BME280;69473;42.426;26.644;2024-03-07T07:37:50;99167.25;;;15.77;38.61
80149;BME280;69473;42.426;26.644;2024-03-07T07:40:19;99178.44;;;14.35;40.26
80149;BME280;69473;42.426;26.644;2024-03-07T07:42:50;99182.03;;;12.74;43.91
80149;BME280;69473;42.426;26.644;2024-03-07T07:45:18;99170.00;;;12.63;45.64
80149;BME280;69473;42.426;26.644;2024-03-07T07:47:47;99158.41;;;11.86;46.51
80149;BME280;69473;42.426;26.644;2024-03-07T07:50:21;99156.53;;;12.15;46.00
80149;BME280;69473;42.426;26.644;2024-03-07T07:52:51;99166.13;;;11.98;45.82
80149;BME280;69473;42.426;26.644;2024-03-07T07:55:26;99156.28;;;12.46;44.71
80149;BME280;69473;42.426;26.644;2024-03-07T07:57:55;99150.53;;;13.09;43.47
80149;BME280;69473;42.426;26.644;2024-03-07T08:00:23;99165.53;;;12.81;44.12
80149;BME280;69473;42.426;26.644;2024-03-07T08:02:55;99173.22;;;11.54;45.67
80149;BME280;69473;42.426;26.644;2024-03-07T08:05:25;99167.34;;;10.90;48.18
80149;BME280;69473;42.426;26.644;2024-03-07T08:07:57;99172.50;;;10.25;49.40
80149;BME280;69473;42.426;26.644;2024-03-07T08:10:27;99172.50;;;10.22;49.04
80149;BME280;69473;42.426;26.644;2024-03-07T08:12:57;99170.81;;;10.39;49.90
80149;BME280;69473;42.426;26.644;2024-03-07T08:15:26;99165.63;;;10.30;50.73
80149;BME280;69473;42.426;26.644;2024-03-07T08:17:52;99170.75;;;10.24;50.45
80149;BME280;69473;42.426;26.644;2024-03-07T08:20:19;99165.50;;;9.87;50.01
80149;BME280;69473;42.426;26.644;2024-03-07T08:22:46;99170.81;;;10.27;49.28
80149;BME280;69473;42.426;26.644;2024-03-07T08:25:14;99174.19;;;11.24;46.91
80149;BME280;69473;42.426;26.644;2024-03-07T08:27:43;99167.34;;;12.74;43.93
80149;BME280;69473;42.426;26.644;2024-03-07T08:30:10;99165.22;;;12.02;44.04
80149;BME280;69473;42.426;26.644;2024-03-07T08:32:46;99156.31;;;14.03;41.58
80149;BME280;69473;42.426;26.644;2024-03-07T08:35:12;99158.38;;;15.84;37.11
80149;BME280;69473;42.426;26.644;2024-03-07T08:37:39;99161.94;;;15.37;37.50
80149;BME280;69473;42.426;26.644;2024-03-07T08:40:07;99168.84;;;14.91;37.60
80149;BME280;69473;42.426;26.644;2024-03-07T08:42:36;99159.75;;;15.57;36.83
80149;BME280;69473;42.426;26.644;2024-03-07T08:45:04;99164.00;;;15.63;36.91
80149;BME280;69473;42.426;26.644;2024-03-07T08:47:34;99162.50;;;14.57;38.67
80149;BME280;69473;42.426;26.644;2024-03-07T08:50:01;99165.97;;;13.23;42.30
80149;BME280;69473;42.426;26.644;2024-03-07T08:52:27;99165.91;;;12.35;43.49
80149;BME280;69473;42.426;26.644;2024-03-07T08:54:54;99165.28;;;11.96;42.50
80149;BME280;69473;42.426;26.644;2024-03-07T08:57:20;99173.25;;;11.48;44.07
80149;BME280;69473;42.426;26.644;2024-03-07T08:59:47;99177.66;;;11.23;45.75
80149;BME280;69473;42.426;26.644;2024-03-07T09:02:14;99173.03;;;12.02;43.86
80149;BME280;69473;42.426;26.644;2024-03-07T09:04:40;99168.94;;;11.46;44.50
80149;BME280;69473;42.426;26.644;2024-03-07T09:07:06;99170.69;;;11.41;45.46
80149;BME280;69473;42.426;26.644;2024-03-07T09:09:33;99181.09;;;11.31;45.53
80149;BME280;69473;42.426;26.644;2024-03-07T09:12:00;99176.00;;;10.67;46.37
80149;BME280;69473;42.426;26.644;2024-03-07T09:14:27;99168.22;;;10.61;47.47
80149;BME280;69473;42.426;26.644;2024-03-07T09:16:53;99176.00;;;10.76;47.57
80149;BME280;69473;42.426;26.644;2024-03-07T09:19:19;99168.19;;;10.90;47.12
80149;BME280;69473;42.426;26.644;2024-03-07T09:21:52;99174.28;;;10.75;47.64
80149;BME280;69473;42.426;26.644;2024-03-07T09:24:19;99164.78;;;10.50;47.27
80149;BME280;69473;42.426;26.644;2024-03-07T09:26:51;99172.53;;;10.96;48.34
80149;BME280;69473;42.426;26.644;2024-03-07T09:29:19;99164.75;;;11.03;47.79
80149;BME280;69473;42.426;26.644;2024-03-07T09:31:46;99163.88;;;11.06;46.71
80149;BME280;69473;42.426;26.644;2024-03-07T09:34:14;99165.59;;;11.01;47.26
80149;BME280;69473;42.426;26.644;2024-03-07T09:36:40;99166.44;;;11.10;47.84
80149;BME280;69473;42.426;26.644;2024-03-07T09:39:07;99159.47;;;11.40;48.28
80149;BME280;69473;42.426;26.644;2024-03-07T09:41:33;99165.56;;;11.22;46.13
80149;BME280;69473;42.426;26.644;2024-03-07T09:44:01;99170.72;;;11.31;47.92
80149;BME280;69473;42.426;26.644;2024-03-07T09:46:27;99165.66;;;10.67;47.96
80149;BME280;69473;42.426;26.644;2024-03-07T09:48:53;99178.59;;;10.35;48.75
80149;BME280;69473;42.426;26.644;2024-03-07T09:51:20;99174.22;;;10.23;49.43
80149;BME280;69473;42.426;26.644;2024-03-07T09:53:51;99175.06;;;10.08;49.33
80149;BME280;69473;42.426;26.644;2024-03-07T09:56:20;99181.94;;;9.97;49.73
80149;BME280;69473;42.426;26.644;2024-03-07T09:58:51;99178.44;;;9.80;50.98
80149;BME280;69473;42.426;26.644;2024-03-07T10:01:21;99182.75;;;9.82;50.65
80149;BME280;69473;42.426;26.644;2024-03-07T10:03:48;99181.03;;;9.84;50.84
80149;BME280;69473;42.426;26.644;2024-03-07T10:06:15;99170.69;;;9.84;51.93
80149;BME280;69473;42.426;26.644;2024-03-07T10:08:42;99172.41;;;9.87;50.12
80149;BME280;69473;42.426;26.644;2024-03-07T10:11:09;99179.31;;;9.83;49.97
80149;BME280;69473;42.426;26.644;2024-03-07T10:13:35;99176.69;;;9.77;51.63
80149;BME280;69473;42.426;26.644;2024-03-07T10:16:03;99174.09;;;9.71;52.10
80149;BME280;69473;42.426;26.644;2024-03-07T10:18:31;99186.19;;;9.72;53.78
80149;BME280;69473;42.426;26.644;2024-03-07T10:20:57;99184.38;;;9.56;53.80
80149;BME280;69473;42.426;26.644;2024-03-07T10:23:23;99189.50;;;9.46;56.96
80149;BME280;69473;42.426;26.644;2024-03-07T10:25:52;99194.66;;;9.39;59.52
80149;BME280;69473;42.426;26.644;2024-03-07T10:28:20;99191.19;;;9.35;58.40
80149;BME280;69473;42.426;26.644;2024-03-07T10:30:46;99192.06;;;9.39;58.41
80149;BME280;69473;42.426;26.644;2024-03-07T10:33:17;99194.59;;;9.28;60.98
80149;BME280;69473;42.426;26.644;2024-03-07T10:35:46;99198.00;;;9.24;62.29
80149;BME280;69473;42.426;26.644;2024-03-07T10:38:12;99199.66;;;9.10;61.11
80149;BME280;69473;42.426;26.644;2024-03-07T10:40:38;99192.75;;;9.07;65.05
80149;BME280;69473;42.426;26.644;2024-03-07T10:43:09;99196.19;;;9.08;65.40
80149;BME280;69473;42.426;26.644;2024-03-07T10:45:46;99197.94;;;9.12;64.06
80149;BME280;69473;42.426;26.644;2024-03-07T10:48:13;99196.19;;;9.08;65.10
80149;BME280;69473;42.426;26.644;2024-03-07T10:50:48;99203.03;;;9.02;64.33
80149;BME280;69473;42.426;26.644;2024-03-07T10:53:40;99196.25;;;9.14;67.35
80149;BME280;69473;42.426;26.644;2024-03-07T11:01:59;99200.25;;;8.75;70.12
80149;BME280;69473;42.426;26.644;2024-03-07T11:04:25;99199.56;;;8.94;73.33
80149;BME280;69473;42.426;26.644;2024-03-07T11:06:51;99206.34;;;8.80;72.38
80149;BME280;69473;42.426;26.644;2024-03-07T11:09:17;99199.44;;;8.79;73.35
80149;BME280;69473;42.426;26.644;2024-03-07T11:11:49;99204.66;;;8.82;71.88
80149;BME280;69473;42.426;26.644;2024-03-07T11:14:17;99198.66;;;8.91;71.80
80149;BME280;69473;42.426;26.644;2024-03-07T11:16:43;99196.22;;;9.11;74.50
80149;BME280;69473;42.426;26.644;2024-03-07T11:19:27;99191.00;;;9.05;71.15
80149;BME280;69473;42.426;26.644;2024-03-07T11:21:54;99189.41;;;9.25;70.54
80149;BME280;69473;42.426;26.644;2024-03-07T11:24:29;99192.06;;;9.39;69.71
80149;BME280;69473;42.426;26.644;2024-03-07T11:26:58;99189.47;;;9.37;67.86
80149;BME280;69473;42.426;26.644;2024-03-07T11:29:49;99184.19;;;9.22;68.66
80149;BME280;69473;42.426;26.644;2024-03-07T11:32:19;99185.91;;;9.14;67.21
80149;BME280;69473;42.426;26.644;2024-03-07T11:34:48;99189.34;;;9.10;69.65
80149;BME280;69473;42.426;26.644;2024-03-07T11:37:37;99193.56;;;9.01;69.82
80149;BME280;69473;42.426;26.644;2024-03-07T11:40:06;99183.25;;;9.05;70.03
80149;BME280;69473;42.426;26.644;2024-03-07T11:42:34;99190.94;;;8.92;72.87
80149;BME280;69473;42.426;26.644;2024-03-07T11:45:02;99185.75;;;8.92;73.58
80149;BME280;69473;42.426;26.644;2024-03-07T11:47:38;99192.75;;;9.09;75.33
80149;BME280;69473;42.426;26.644;2024-03-07T11:50:07;99187.53;;;9.02;74.63
80149;BME280;69473;42.426;26.644;2024-03-07T11:52:39;99185.84;;;9.05;76.14
80149;BME280;69473;42.426;26.644;2024-03-07T11:55:09;99182.38;;;9.06;75.93
80149;BME280;69473;42.426;26.644;2024-03-07T11:57:36;99187.50;;;8.96;76.39
80149;BME280;69473;42.426;26.644;2024-03-07T12:00:03;99185.78;;;8.95;75.09
80149;BME280;69473;42.426;26.644;2024-03-07T12:02:38;99185.72;;;8.86;76.34
80149;BME280;69473;42.426;26.644;2024-03-07T12:05:05;99175.44;;;8.95;76.77
80149;BME280;69473;42.426;26.644;2024-03-07T12:07:31;99171.97;;;8.93;77.39
80149;BME280;69473;42.426;26.644;2024-03-07T12:09:59;99173.72;;;8.94;78.31
80149;BME280;69473;42.426;26.644;2024-03-07T12:12:29;99182.25;;;8.87;76.60
80149;BME280;69473;42.426;26.644;2024-03-07T12:14:55;99179.53;;;8.64;75.75
80149;BME280;69473;42.426;26.644;2024-03-07T12:17:22;99170.88;;;8.61;75.45
80149;BME280;69473;42.426;26.644;2024-03-07T12:19:49;99171.69;;;8.50;74.86
80149;BME280;69473;42.426;26.644;2024-03-07T12:22:19;99173.41;;;8.54;76.65
80149;BME280;69473;42.426;26.644;2024-03-07T12:25:00;99175.13;;;8.55;74.67
80149;BME280;69473;42.426;26.644;2024-03-07T12:27:29;99178.72;;;8.70;77.02
80149;BME280;69473;42.426;26.644;2024-03-07T12:29:55;99171.81;;;8.72;74.21
80149;BME280;69473;42.426;26.644;2024-03-07T12:32:20;99164.84;;;8.62;73.19
80149;BME280;69473;42.426;26.644;2024-03-07T12:34:46;99180.31;;;8.55;73.28
80149;BME280;69473;42.426;26.644;2024-03-07T12:37:13;99166.53;;;8.56;74.54
80149;BME280;69473;42.426;26.644;2024-03-07T12:39:42;99177.00;;;8.75;76.43
80149;BME280;69473;42.426;26.644;2024-03-07T12:42:20;99177.06;;;8.84;77.30
80149;BME280;69473;42.426;26.644;2024-03-07T12:44:46;99177.00;;;8.75;72.61
80149;BME280;69473;42.426;26.644;2024-03-07T12:47:12;99172.59;;;8.62;74.37
80149;BME280;69473;42.426;26.644;2024-03-07T12:49:40;99166.50;;;8.50;74.14
80149;BME280;69473;42.426;26.644;2024-03-07T12:52:06;99168.13;;;8.39;74.21
80149;BME280;69473;42.426;26.644;2024-03-07T12:54:35;99165.44;;;8.31;77.17
80149;BME280;69473;42.426;26.644;2024-03-07T12:57:10;99165.44;;;8.30;76.64
80149;BME280;69473;42.426;26.644;2024-03-07T12:59:37;99164.44;;;8.19;77.54
80149;BME280;69473;42.426;26.644;2024-03-07T13:02:09;99164.47;;;8.22;79.19
80149;BME280;69473;42.426;26.644;2024-03-07T13:04:36;99164.41;;;8.16;79.80
80149;BME280;69473;42.426;26.644;2024-03-07T13:07:05;99167.91;;;8.18;77.40
80149;BME280;69473;42.426;26.644;2024-03-07T13:09:31;99162.66;;;8.08;78.38
80149;BME280;69473;42.426;26.644;2024-03-07T13:11:58;99162.66;;;8.12;78.30